Gotha-Ost Airport


Codes: EDEG/
Name: Gotha-Ost Airport
City: Gotha
Country: Germany
Elevation: 991 ft.

Photos at Gotha-Ost Airport


   Photos courtesy of SpottingLog. You can add your own sightings and photos by signing up for a free trial today.



No photos found.

Weather at Gotha-Ost Airport


Time (UTC)DescriptionTempratureWindCloud coverageVisibilityPressureHumidity
13-Jun-2024 03:00Scattered Clouds8°C4 mph, SW32%10000m1019hPa86%
13-Jun-2024 06:00Broken Clouds9°C4 mph, W57%10000m1019hPa83%
13-Jun-2024 09:00Few Clouds13°C7 mph, NW13%10000m1019hPa58%
13-Jun-2024 12:00Scattered Clouds16°C7 mph, NW25%10000m1017hPa48%
13-Jun-2024 15:00Scattered Clouds16°C7 mph, NW43%10000m1017hPa49%
13-Jun-2024 18:00Scattered Clouds14°C4 mph, E48%10000m1016hPa66%
13-Jun-2024 21:00Overcast Clouds9°C4 mph, S97%10000m1017hPa75%
14-Jun-2024 00:00Overcast Clouds10°C4 mph, S99%10000m1015hPa71%
14-Jun-2024 03:00Overcast Clouds10°C4 mph, S100%10000m1014hPa71%
14-Jun-2024 06:00Overcast Clouds13°C4 mph, S100%10000m1013hPa70%
14-Jun-2024 09:00Overcast Clouds17°C11 mph, SW100%10000m1012hPa60%
14-Jun-2024 12:00Light Rain13°C9 mph, S100%10000m1013hPa77%
14-Jun-2024 15:00Overcast Clouds14°C13 mph, SW100%10000m1012hPa77%
14-Jun-2024 18:00Overcast Clouds14°C11 mph, SW100%10000m1012hPa82%
14-Jun-2024 21:00Overcast Clouds13°C11 mph, S98%10000m1012hPa87%
15-Jun-2024 00:00Overcast Clouds13°C9 mph, S99%10000m1009hPa87%
15-Jun-2024 03:00Overcast Clouds13°C7 mph, S100%10000m1007hPa84%
15-Jun-2024 06:00Overcast Clouds15°C7 mph, S100%10000m1006hPa77%
15-Jun-2024 09:00Light Rain13°C11 mph, SW100%10000m1009hPa91%
15-Jun-2024 12:00Broken Clouds19°C18 mph, SW84%10000m1009hPa54%
15-Jun-2024 15:00Clear Sky19°C16 mph, W5%10000m1009hPa51%
15-Jun-2024 18:00Clear Sky16°C11 mph, SW5%10000m1010hPa60%
15-Jun-2024 21:00Broken Clouds11°C7 mph, SW71%10000m1012hPa67%
16-Jun-2024 00:00Overcast Clouds11°C7 mph, S85%10000m1012hPa70%
16-Jun-2024 03:00Broken Clouds10°C4 mph, SW80%10000m1012hPa81%
16-Jun-2024 06:00Broken Clouds16°C11 mph, SW79%10000m1011hPa72%
16-Jun-2024 09:00Light Rain17°C13 mph, SW100%10000m1012hPa68%
16-Jun-2024 12:00Broken Clouds20°C16 mph, SW78%10000m1012hPa53%
16-Jun-2024 15:00Scattered Clouds19°C13 mph, W42%10000m1013hPa61%
16-Jun-2024 18:00Scattered Clouds17°C9 mph, W36%10000m1014hPa69%
16-Jun-2024 21:00Clear Sky12°C4 mph, SW6%10000m1015hPa84%
17-Jun-2024 00:00Scattered Clouds11°C4 mph, S26%10000m1016hPa86%
17-Jun-2024 03:00Few Clouds11°C4 mph, S14%10000m1016hPa87%
17-Jun-2024 06:00Few Clouds17°C4 mph, S12%10000m1015hPa71%
17-Jun-2024 09:00Scattered Clouds22°C11 mph, SW48%10000m1015hPa57%
17-Jun-2024 12:00Scattered Clouds24°C9 mph, SW45%10000m1014hPa49%
17-Jun-2024 15:00Overcast Clouds24°C9 mph, SW95%10000m1014hPa55%
17-Jun-2024 18:00Light Rain20°C7 mph, SW97%10000m1015hPa74%
17-Jun-2024 21:00Overcast Clouds16°C4 mph, W86%10000m1017hPa85%
18-Jun-2024 00:00Overcast Clouds15°C4 mph, S93%10000m1017hPa89%